createdAt,value
2018-12-17T00:01:57.561Z,-1.00
2018-12-17T00:05:06.890Z,-1.00
2018-12-17T00:08:16.414Z,-0.90
2018-12-17T00:11:26.112Z,-1.00
2018-12-17T00:14:35.375Z,-0.90
2018-12-17T00:17:44.570Z,-0.90
2018-12-17T00:20:53.961Z,-0.90
2018-12-17T00:24:03.311Z,-0.90
2018-12-17T00:27:12.525Z,-0.90
2018-12-17T00:30:21.892Z,-0.80
2018-12-17T00:33:31.193Z,-0.80
2018-12-17T00:36:40.605Z,-0.80
2018-12-17T00:39:50.051Z,-0.80
2018-12-17T00:42:59.418Z,-0.80
2018-12-17T00:46:08.789Z,-0.80
2018-12-17T00:49:25.463Z,-0.80
2018-12-17T00:52:34.825Z,-0.80
2018-12-17T00:55:44.096Z,-0.80
2018-12-17T00:58:53.409Z,-0.80
2018-12-17T01:02:02.804Z,-0.80
2018-12-17T01:05:12.112Z,-0.80
2018-12-17T01:08:21.459Z,-0.80
2018-12-17T01:11:30.835Z,-0.80
2018-12-17T01:14:40.140Z,-0.80
2018-12-17T01:17:49.508Z,-0.80
2018-12-17T01:20:58.961Z,-0.80
2018-12-17T01:24:08.341Z,-0.80
2018-12-17T01:27:17.593Z,-0.80
2018-12-17T01:30:26.847Z,-0.80
2018-12-17T01:33:36.191Z,-0.80
2018-12-17T01:36:45.553Z,-0.80
2018-12-17T01:39:54.833Z,-0.90
2018-12-17T01:43:04.293Z,-0.80
2018-12-17T01:46:13.612Z,-0.80
2018-12-17T01:49:23.061Z,-0.80
2018-12-17T01:52:32.503Z,-0.80
2018-12-17T01:55:41.980Z,-0.80
2018-12-17T01:58:57.432Z,-0.80
2018-12-17T02:02:06.672Z,-0.80
2018-12-17T02:05:15.977Z,-0.70
2018-12-17T02:08:25.738Z,-0.70
2018-12-17T02:11:35.149Z,-0.70
2018-12-17T02:14:44.397Z,-0.70
2018-12-17T02:17:53.768Z,-0.70
2018-12-17T02:21:03.182Z,-0.70
2018-12-17T02:24:12.633Z,-0.70
2018-12-17T02:27:22.090Z,-0.60
2018-12-17T02:30:31.454Z,-0.60
2018-12-17T02:33:40.670Z,-0.60
2018-12-17T02:36:50.158Z,-0.60
2018-12-17T02:39:59.755Z,-0.60
2018-12-17T02:43:09.141Z,-0.60
2018-12-17T02:46:18.582Z,-0.60
2018-12-17T02:49:27.796Z,-0.60
2018-12-17T02:52:37.209Z,-0.60
2018-12-17T02:55:46.522Z,-0.60
2018-12-17T02:58:55.745Z,-0.60
2018-12-17T03:02:05.175Z,-0.50
2018-12-17T03:05:14.493Z,-0.60
2018-12-17T03:08:23.851Z,-0.60
2018-12-17T03:11:33.268Z,-0.50
2018-12-17T03:14:42.633Z,-0.60
2018-12-17T03:17:52.020Z,-0.60
2018-12-17T03:21:01.394Z,-0.50
2018-12-17T03:24:10.794Z,-0.60
2018-12-17T03:27:20.104Z,-0.60
2018-12-17T03:30:29.516Z,-0.50
2018-12-17T03:33:38.936Z,-0.50
2018-12-17T03:36:48.203Z,-0.50
2018-12-17T03:39:57.525Z,-0.50
2018-12-17T03:43:07.632Z,-0.50
2018-12-17T03:46:17.007Z,-0.50
2018-12-17T03:49:26.713Z,-0.50
2018-12-17T03:52:36.250Z,-0.50
2018-12-17T03:55:45.758Z,-0.50
2018-12-17T03:58:59.299Z,-0.50
2018-12-17T04:02:06.445Z,-0.50
2018-12-17T04:05:15.876Z,-0.50
2018-12-17T04:08:25.234Z,-0.50
2018-12-17T04:11:34.767Z,-0.40
2018-12-17T04:14:44.428Z,-0.40
2018-12-17T04:17:53.864Z,-0.40
2018-12-17T04:21:03.531Z,-0.40
2018-12-17T04:24:12.839Z,-0.40
2018-12-17T04:27:22.426Z,-0.40
2018-12-17T04:30:31.653Z,-0.40
2018-12-17T04:33:41.087Z,-0.40
2018-12-17T04:36:50.437Z,-0.40
2018-12-17T04:39:59.705Z,-0.40
2018-12-17T04:43:08.908Z,-0.40
2018-12-17T04:46:18.239Z,-0.40
2018-12-17T04:49:27.633Z,-0.30
2018-12-17T04:52:37.076Z,-0.40
2018-12-17T04:55:46.432Z,-0.30
2018-12-17T04:58:55.816Z,-0.30
2018-12-17T05:02:05.568Z,-0.30
2018-12-17T05:05:15.158Z,-0.30
2018-12-17T05:08:24.553Z,-0.30
2018-12-17T05:11:33.944Z,-0.30
2018-12-17T05:14:43.329Z,-0.30
2018-12-17T05:17:52.857Z,-0.30
2018-12-17T05:21:02.216Z,-0.30
2018-12-17T05:24:11.661Z,-0.30
2018-12-17T05:27:21.068Z,-0.30
2018-12-17T05:30:30.463Z,-0.30
2018-12-17T05:33:39.870Z,-0.30
2018-12-17T05:36:49.399Z,-0.20
2018-12-17T05:39:58.801Z,-0.20
2018-12-17T05:43:08.091Z,-0.20
2018-12-17T05:46:17.412Z,-0.20
2018-12-17T05:49:26.793Z,-0.20
2018-12-17T05:52:36.202Z,-0.20
2018-12-17T05:55:45.537Z,-0.20
2018-12-17T05:58:54.956Z,-0.20
2018-12-17T06:02:04.526Z,-0.20
2018-12-17T06:05:13.940Z,-0.20
2018-12-17T06:08:23.362Z,-0.20
2018-12-17T06:11:32.988Z,-0.20
2018-12-17T06:14:42.384Z,-0.20
2018-12-17T06:17:51.755Z,-0.20
2018-12-17T06:21:01.211Z,-0.20
2018-12-17T06:24:10.636Z,-0.20
2018-12-17T06:27:19.999Z,-0.20
2018-12-17T06:30:29.231Z,-0.20
2018-12-17T06:33:41.298Z,-0.20
2018-12-17T06:36:50.751Z,-0.10
2018-12-17T06:40:00.028Z,-0.20
2018-12-17T06:43:09.387Z,-0.20
2018-12-17T06:46:18.755Z,-0.10
2018-12-17T06:49:28.115Z,-0.10
2018-12-17T06:52:37.580Z,-0.20
2018-12-17T06:55:46.865Z,-0.20
2018-12-17T06:58:56.175Z,-0.10
2018-12-17T07:02:06.470Z,-0.10
2018-12-17T07:05:15.860Z,-0.10
2018-12-17T07:08:25.419Z,-0.10
2018-12-17T07:11:34.851Z,-0.10
2018-12-17T07:14:44.067Z,-0.10
2018-12-17T07:17:53.485Z,-0.10
2018-12-17T07:21:02.661Z,0.00
2018-12-17T07:24:12.084Z,0.00
2018-12-17T07:27:21.432Z,0.10
2018-12-17T07:30:31.816Z,0.10
2018-12-17T07:33:41.047Z,0.10
2018-12-17T07:36:50.371Z,0.10
2018-12-17T07:39:59.716Z,0.10
2018-12-17T07:43:08.905Z,0.10
2018-12-17T07:46:18.104Z,0.10
2018-12-17T07:49:27.471Z,0.10
2018-12-17T07:52:36.680Z,0.20
2018-12-17T07:55:46.428Z,0.30
2018-12-17T07:58:55.620Z,0.30
2018-12-17T08:05:20.668Z,0.30
2018-12-17T08:08:35.462Z,0.40
2018-12-17T08:12:44.576Z,0.50
2018-12-17T08:15:53.903Z,0.50
2018-12-17T08:19:03.202Z,0.60
2018-12-17T08:22:12.574Z,0.60
2018-12-17T08:25:21.903Z,0.70
2018-12-17T08:28:31.315Z,0.80
2018-12-17T08:31:40.727Z,0.80
2018-12-17T08:34:50.072Z,0.90
2018-12-17T08:37:59.360Z,1.00
2018-12-17T08:41:08.815Z,1.00
2018-12-17T08:44:18.205Z,1.10
2018-12-17T08:47:27.373Z,1.10
2018-12-17T08:50:36.803Z,1.10
2018-12-17T08:53:46.214Z,1.10
2018-12-17T08:56:55.435Z,1.10
2018-12-17T09:00:11.049Z,1.10
2018-12-17T09:03:16.785Z,1.10
2018-12-17T09:06:26.162Z,1.10
2018-12-17T09:09:35.393Z,1.20
2018-12-17T09:12:44.848Z,1.20
2018-12-17T09:15:54.093Z,1.30
2018-12-17T09:19:03.440Z,1.30
2018-12-17T09:22:12.726Z,1.40
2018-12-17T09:25:22.248Z,1.50
2018-12-17T09:28:31.541Z,1.50
2018-12-17T09:31:40.852Z,1.60
2018-12-17T09:34:50.196Z,1.60
2018-12-17T09:37:59.471Z,1.60
2018-12-17T09:41:08.664Z,1.60
2018-12-17T09:44:18.148Z,1.70
2018-12-17T09:47:27.438Z,1.70
2018-12-17T09:50:36.726Z,1.60
2018-12-17T09:53:45.931Z,1.70
2018-12-17T09:56:55.337Z,1.80
2018-12-17T10:00:05.770Z,1.80
2018-12-17T10:03:15.067Z,1.90
2018-12-17T10:06:24.364Z,1.90
2018-12-17T10:09:33.601Z,2.00
2018-12-17T10:12:42.933Z,1.90
2018-12-17T10:15:52.312Z,1.90
2018-12-17T10:19:01.584Z,2.00
2018-12-17T10:22:10.854Z,2.00
2018-12-17T10:25:20.084Z,2.10
2018-12-17T10:28:29.269Z,2.00
2018-12-17T10:31:38.595Z,1.90
2018-12-17T10:34:48.135Z,1.90
2018-12-17T10:37:57.643Z,2.00
2018-12-17T10:41:06.901Z,2.00
2018-12-17T10:44:16.318Z,2.10
2018-12-17T10:47:25.669Z,2.20
2018-12-17T10:50:34.976Z,2.30
2018-12-17T10:53:44.344Z,2.20
2018-12-17T10:57:07.871Z,2.30
2018-12-17T11:00:22.987Z,2.30
2018-12-17T11:03:38.480Z,2.30
2018-12-17T11:06:47.948Z,2.30
2018-12-17T11:09:57.272Z,2.30
2018-12-17T11:13:06.823Z,2.40
2018-12-17T11:16:16.063Z,2.30
2018-12-17T11:19:25.220Z,2.20
2018-12-17T11:22:34.648Z,2.30
2018-12-17T11:25:43.876Z,2.30
2018-12-17T11:28:53.133Z,2.30
2018-12-17T11:32:02.516Z,2.20
2018-12-17T11:35:14.153Z,2.20
2018-12-17T11:38:23.840Z,2.30
2018-12-17T11:41:33.169Z,2.30
2018-12-17T11:44:42.537Z,2.40
2018-12-17T11:47:51.873Z,2.30
2018-12-17T11:51:01.311Z,2.30
2018-12-17T11:54:10.775Z,2.20
2018-12-17T11:57:31.081Z,2.40
2018-12-17T12:00:43.719Z,2.40
2018-12-17T12:03:53.027Z,2.50
2018-12-17T12:07:02.392Z,2.50
2018-12-17T12:10:11.637Z,2.40
2018-12-17T12:13:20.943Z,2.40
2018-12-17T12:16:30.374Z,2.30
2018-12-17T12:19:39.743Z,2.30
2018-12-17T12:22:49.184Z,2.20
2018-12-17T12:25:58.670Z,2.20
2018-12-17T12:29:08.035Z,2.30
2018-12-17T12:32:17.468Z,2.30
2018-12-17T12:35:26.798Z,2.20
2018-12-17T12:38:36.241Z,2.30
2018-12-17T12:41:45.635Z,2.20
2018-12-17T12:44:56.000Z,2.20
2018-12-17T12:48:05.187Z,2.30
2018-12-17T12:51:14.812Z,2.30
2018-12-17T12:54:24.134Z,2.20
2018-12-17T12:57:33.426Z,2.20
2018-12-17T13:00:42.920Z,2.20
2018-12-17T13:03:52.184Z,2.20
2018-12-17T13:07:01.469Z,2.10
2018-12-17T13:10:11.306Z,2.10
2018-12-17T13:13:20.481Z,2.10
2018-12-17T13:16:30.194Z,2.20
2018-12-17T13:19:39.592Z,2.20
2018-12-17T13:22:48.907Z,2.10
2018-12-17T13:25:58.303Z,2.20
2018-12-17T13:29:07.590Z,2.20
2018-12-17T13:32:16.812Z,2.20
2018-12-17T13:35:26.026Z,2.30
2018-12-17T13:38:35.514Z,2.30
2018-12-17T13:41:44.744Z,2.20
2018-12-17T13:44:55.267Z,2.30
2018-12-17T13:48:04.503Z,2.30
2018-12-17T13:51:20.034Z,2.30
2018-12-17T13:54:29.495Z,2.20
2018-12-17T13:57:38.943Z,2.20
2018-12-17T14:00:48.260Z,2.20
2018-12-17T14:03:57.543Z,2.20
2018-12-17T14:07:06.895Z,2.10
2018-12-17T14:10:21.398Z,2.20
2018-12-17T14:13:30.587Z,2.20
2018-12-17T14:16:45.545Z,2.20
2018-12-17T14:20:00.343Z,2.30
2018-12-17T14:23:09.652Z,2.40
2018-12-17T14:26:19.005Z,2.40
2018-12-17T14:29:28.500Z,2.40
2018-12-17T14:32:37.830Z,2.30
2018-12-17T14:35:52.569Z,2.30
2018-12-17T14:39:01.806Z,2.30
2018-12-17T14:42:11.166Z,2.20
2018-12-17T14:45:20.422Z,2.20
2018-12-17T14:48:29.844Z,2.20
2018-12-17T14:51:39.049Z,2.20
2018-12-17T14:54:48.469Z,2.30
2018-12-17T14:57:57.692Z,2.30
2018-12-17T15:01:07.098Z,2.30
2018-12-17T15:04:16.447Z,2.30
2018-12-17T15:07:25.904Z,2.30
2018-12-17T15:10:35.198Z,2.30
2018-12-17T15:13:44.608Z,2.40
2018-12-17T15:16:53.855Z,2.40
2018-12-17T15:20:03.340Z,2.30
2018-12-17T15:23:12.747Z,2.30
2018-12-17T15:26:22.057Z,2.30
2018-12-17T15:29:31.344Z,2.20
2018-12-17T15:32:40.789Z,2.30
2018-12-17T15:35:50.104Z,2.30
2018-12-17T15:38:59.433Z,2.40
2018-12-17T15:42:08.680Z,2.40
2018-12-17T15:45:18.241Z,2.40
2018-12-17T15:48:27.580Z,2.40
2018-12-17T15:51:36.925Z,2.40
2018-12-17T15:54:46.348Z,2.40
2018-12-17T15:57:55.748Z,2.40
2018-12-17T16:01:05.167Z,2.40
2018-12-17T16:04:14.439Z,2.40
2018-12-17T16:07:23.820Z,2.40
2018-12-17T16:10:33.278Z,2.40
2018-12-17T16:13:42.564Z,2.40
2018-12-17T16:16:51.828Z,2.40
2018-12-17T16:20:01.224Z,2.50
2018-12-17T16:23:10.572Z,2.50
2018-12-17T16:26:19.952Z,2.60
2018-12-17T16:29:29.248Z,2.70
2018-12-17T16:32:38.628Z,2.60
2018-12-17T16:35:47.949Z,2.60
2018-12-17T16:38:57.282Z,2.60
2018-12-17T16:42:06.561Z,2.60
2018-12-17T16:45:15.800Z,2.60
2018-12-17T16:48:25.286Z,2.70
2018-12-17T16:51:34.791Z,2.70
2018-12-17T16:54:43.996Z,2.60
2018-12-17T16:57:53.341Z,2.70
2018-12-17T17:01:02.632Z,2.70
2018-12-17T17:04:11.934Z,2.80
2018-12-17T17:07:21.363Z,2.80
2018-12-17T17:10:30.786Z,2.70
2018-12-17T17:13:40.013Z,2.70
2018-12-17T17:16:49.500Z,2.60
2018-12-17T17:19:58.908Z,2.60
2018-12-17T17:23:08.170Z,2.60
2018-12-17T17:26:17.359Z,2.60
2018-12-17T17:29:26.627Z,2.60
2018-12-17T17:32:35.981Z,2.60
2018-12-17T17:35:45.494Z,2.50
2018-12-17T17:38:54.793Z,2.50
2018-12-17T17:42:04.129Z,2.50
2018-12-17T17:45:13.423Z,2.40
2018-12-17T17:48:22.734Z,2.40
2018-12-17T17:51:31.943Z,2.30
2018-12-17T17:54:41.356Z,2.30
2018-12-17T17:57:50.703Z,2.30
2018-12-17T18:01:00.046Z,2.30
2018-12-17T18:04:09.323Z,2.30
2018-12-17T18:07:18.647Z,2.30
2018-12-17T18:10:27.974Z,2.30
2018-12-17T18:13:37.466Z,2.20
2018-12-17T18:16:46.775Z,2.30
2018-12-17T18:19:56.121Z,2.20
2018-12-17T18:23:05.423Z,2.20
2018-12-17T18:26:14.935Z,2.20
2018-12-17T18:29:24.212Z,2.20
2018-12-17T18:32:33.592Z,2.30
2018-12-17T18:35:42.857Z,2.20
2018-12-17T18:38:52.388Z,2.30
2018-12-17T18:42:01.646Z,2.30
2018-12-17T18:45:11.186Z,2.30
2018-12-17T18:48:20.441Z,2.40
2018-12-17T18:51:29.850Z,2.40
2018-12-17T18:54:39.201Z,2.30
2018-12-17T18:57:48.584Z,2.40
2018-12-17T19:00:57.848Z,2.30
2018-12-17T19:04:07.304Z,2.30
2018-12-17T19:07:16.652Z,2.30
2018-12-17T19:10:30.584Z,2.30
2018-12-17T19:13:39.809Z,2.30
2018-12-17T19:16:49.201Z,2.40
2018-12-17T19:19:58.743Z,2.40
2018-12-17T19:23:08.167Z,2.30
2018-12-17T19:26:17.566Z,2.30
2018-12-17T19:29:26.892Z,2.30
2018-12-17T19:32:40.206Z,2.30
2018-12-17T19:35:47.698Z,2.30
2018-12-17T19:38:56.911Z,2.30
2018-12-17T19:42:06.318Z,2.30
2018-12-17T19:45:16.683Z,2.30
2018-12-17T19:48:26.019Z,2.30
2018-12-17T19:51:35.422Z,2.30
2018-12-17T19:54:44.697Z,2.30
2018-12-17T19:57:54.118Z,2.30
2018-12-17T20:01:03.666Z,2.30
2018-12-17T20:04:12.911Z,2.30
2018-12-17T20:07:22.258Z,2.30
2018-12-17T20:10:31.604Z,2.30
2018-12-17T20:13:40.936Z,2.30
2018-12-17T20:16:50.234Z,2.30
2018-12-17T20:19:59.502Z,2.30
2018-12-17T20:23:08.866Z,2.30
2018-12-17T20:26:18.397Z,2.30
2018-12-17T20:29:27.627Z,2.30
2018-12-17T20:32:37.692Z,2.30
2018-12-17T20:35:47.168Z,2.20
2018-12-17T20:38:56.586Z,2.20
2018-12-17T20:42:05.833Z,2.20
2018-12-17T20:45:15.088Z,2.20
2018-12-17T20:48:24.456Z,2.20
2018-12-17T20:51:33.773Z,2.10
2018-12-17T20:54:43.261Z,2.10
2018-12-17T20:57:52.688Z,2.20
2018-12-17T21:01:02.066Z,2.20
2018-12-17T21:04:11.297Z,2.10
2018-12-17T21:07:20.588Z,2.10
2018-12-17T21:10:29.907Z,2.20
2018-12-17T21:13:39.105Z,2.20
2018-12-17T21:16:48.591Z,2.20
2018-12-17T21:19:57.881Z,2.20
2018-12-17T21:23:07.684Z,2.20
2018-12-17T21:26:17.041Z,2.20
2018-12-17T21:29:32.876Z,2.20
2018-12-17T21:32:42.192Z,2.20
2018-12-17T21:35:58.285Z,2.20
2018-12-17T21:39:07.655Z,2.20
2018-12-17T21:42:16.945Z,2.20
2018-12-17T21:45:26.247Z,2.20
2018-12-17T21:48:35.532Z,2.20
2018-12-17T21:51:44.892Z,2.20
2018-12-17T21:54:54.155Z,2.20
2018-12-17T21:58:03.517Z,2.20
2018-12-17T22:01:12.874Z,2.20
2018-12-17T22:04:22.306Z,2.20
2018-12-17T22:07:31.515Z,2.20
2018-12-17T22:10:40.951Z,2.20
2018-12-17T22:13:50.344Z,2.20
2018-12-17T22:16:59.719Z,2.10
2018-12-17T22:20:09.059Z,2.10
2018-12-17T22:23:18.311Z,2.10
2018-12-17T22:26:29.369Z,2.10
2018-12-17T22:29:38.809Z,2.10
2018-12-17T22:32:48.126Z,2.00
2018-12-17T22:35:57.505Z,2.10
2018-12-17T22:39:06.953Z,2.00
2018-12-17T22:42:16.443Z,2.10
2018-12-17T22:45:26.325Z,2.10
2018-12-17T22:48:35.714Z,2.10
2018-12-17T22:51:45.041Z,2.10
2018-12-17T22:58:10.155Z,2.00
2018-12-17T23:01:19.546Z,2.10
2018-12-17T23:04:28.897Z,2.10
2018-12-17T23:07:38.110Z,2.10
2018-12-17T23:10:59.000Z,2.20
2018-12-17T23:14:19.908Z,2.10
2018-12-17T23:17:40.397Z,2.10
2018-12-17T23:20:49.584Z,2.20
2018-12-17T23:23:58.794Z,2.20
2018-12-17T23:27:08.382Z,2.20
2018-12-17T23:30:17.761Z,2.20
2018-12-17T23:33:32.654Z,2.20
2018-12-17T23:36:38.620Z,2.20
2018-12-17T23:39:48.103Z,2.10
2018-12-17T23:42:57.559Z,2.10
2018-12-17T23:46:06.780Z,2.10
2018-12-17T23:49:16.048Z,2.10
2018-12-17T23:52:25.365Z,2.10
2018-12-17T23:55:34.735Z,2.10
2018-12-17T23:58:44.054Z,2.10
